Řízení letového provozu České republiky
Letiste: LKMT Aktualizace: 26.05.2016 18:06:12  UTC
 METAR LKMT 26.05. 18:00 COR
METAR COR LKMT 261800Z 07005KT 9999 SCT025 16/12 Q1017 NOSIG RMK REG QNH 1013=
 TAF LKMT 26.05. 17:00 ...
TAF LKMT 261700Z 2618/2724 06007KT 9999 SCT025      BECMG 2618/2620 VRB02KT      TEMPO 2702/2706 4000 BR BKN009      BECMG 2706/2708 02006KT 9999 SCT033      TEMPO 2710/2718 8000 SHRA SCT020TCU SCT020CB BKN027=